sensor_id;sensor_type;location;lat;lon;timestamp;pressure;altitude;pressure_sealevel;temperature;humidity
12757;BME280;31601;48.042;12.240;2023-05-02T00:01:45;96240.84;;;13.12;70.88
12757;BME280;31601;48.042;12.240;2023-05-02T00:04:11;96250.78;;;13.10;71.10
12757;BME280;31601;48.042;12.240;2023-05-02T00:06:38;96247.53;;;13.08;71.10
12757;BME280;31601;48.042;12.240;2023-05-02T00:09:06;96249.94;;;13.10;71.18
12757;BME280;31601;48.042;12.240;2023-05-02T00:11:33;96245.91;;;13.07;70.98
12757;BME280;31601;48.042;12.240;2023-05-02T00:14:01;96251.97;;;13.01;71.19
12757;BME280;31601;48.042;12.240;2023-05-02T00:16:27;96248.31;;;13.02;70.85
12757;BME280;31601;48.042;12.240;2023-05-02T00:18:53;96244.28;;;12.99;71.26
12757;BME280;31601;48.042;12.240;2023-05-02T00:21:20;96246.50;;;13.02;71.18
12757;BME280;31601;48.042;12.240;2023-05-02T00:23:46;96240.59;;;13.00;71.39
12757;BME280;31601;48.042;12.240;2023-05-02T00:26:13;96245.28;;;13.05;71.13
12757;BME280;31601;48.042;12.240;2023-05-02T00:28:39;96242.66;;;13.05;71.28
12757;BME280;31601;48.042;12.240;2023-05-02T00:31:07;96240.66;;;13.07;71.25
12757;BME280;31601;48.042;12.240;2023-05-02T00:33:34;96244.47;;;13.04;71.22
12757;BME280;31601;48.042;12.240;2023-05-02T00:36:00;96239.22;;;13.04;71.29
12757;BME280;31601;48.042;12.240;2023-05-02T00:38:27;96241.25;;;13.02;71.35
12757;BME280;31601;48.042;12.240;2023-05-02T00:40:53;96241.41;;;12.94;71.53
12757;BME280;31601;48.042;12.240;2023-05-02T00:43:20;96239.00;;;12.99;71.31
12757;BME280;31601;48.042;12.240;2023-05-02T00:45:47;96234.13;;;12.96;71.54
12757;BME280;31601;48.042;12.240;2023-05-02T00:48:14;96236.19;;;13.01;71.25
12757;BME280;31601;48.042;12.240;2023-05-02T00:50:43;96237.19;;;13.00;71.00
12757;BME280;31601;48.042;12.240;2023-05-02T00:53:10;96237.78;;;12.95;71.62
12757;BME280;31601;48.042;12.240;2023-05-02T00:55:37;96238.97;;;12.93;71.49
12757;BME280;31601;48.042;12.240;2023-05-02T00:58:07;96233.50;;;12.94;71.63
12757;BME280;31601;48.042;12.240;2023-05-02T01:00:43;96237.31;;;12.85;71.82
12757;BME280;31601;48.042;12.240;2023-05-02T01:03:19;96246.47;;;12.89;71.88
12757;BME280;31601;48.042;12.240;2023-05-02T01:05:49;96244.44;;;12.91;71.60
12757;BME280;31601;48.042;12.240;2023-05-02T01:08:24;96241.00;;;12.90;71.75
12757;BME280;31601;48.042;12.240;2023-05-02T01:11:01;96243.81;;;12.82;71.85
12757;BME280;31601;48.042;12.240;2023-05-02T01:13:32;96249.28;;;12.81;72.00
12757;BME280;31601;48.042;12.240;2023-05-02T01:16:00;96241.78;;;12.84;71.90
12757;BME280;31601;48.042;12.240;2023-05-02T01:18:33;96246.47;;;12.89;71.87
12757;BME280;31601;48.042;12.240;2023-05-02T01:21:03;96242.59;;;12.85;71.81
12757;BME280;31601;48.042;12.240;2023-05-02T01:23:38;96238.97;;;12.86;71.83
12757;BME280;31601;48.042;12.240;2023-05-02T01:26:15;96241.38;;;12.87;71.79
12757;BME280;31601;48.042;12.240;2023-05-02T01:28:59;96241.97;;;12.83;71.94
12757;BME280;31601;48.042;12.240;2023-05-02T01:31:28;96239.13;;;12.78;72.03
12757;BME280;31601;48.042;12.240;2023-05-02T01:33:57;96239.53;;;12.81;71.95
12757;BME280;31601;48.042;12.240;2023-05-02T01:36:28;96249.88;;;12.76;72.13
12757;BME280;31601;48.042;12.240;2023-05-02T01:38:56;96253.69;;;12.74;72.22
12757;BME280;31601;48.042;12.240;2023-05-02T01:41:25;96252.31;;;12.78;72.05
12757;BME280;31601;48.042;12.240;2023-05-02T01:43:52;96254.75;;;12.86;71.76
12757;BME280;31601;48.042;12.240;2023-05-02T01:46:24;96254.75;;;12.79;72.04
12757;BME280;31601;48.042;12.240;2023-05-02T01:48:52;96257.31;;;12.72;72.15
12757;BME280;31601;48.042;12.240;2023-05-02T01:51:20;96257.56;;;12.78;72.15
12757;BME280;31601;48.042;12.240;2023-05-02T01:53:48;96257.56;;;12.78;72.17
12757;BME280;31601;48.042;12.240;2023-05-02T01:56:16;96256.31;;;12.74;72.35
12757;BME280;31601;48.042;12.240;2023-05-02T01:58:44;96261.59;;;12.80;72.32
12757;BME280;31601;48.042;12.240;2023-05-02T02:01:12;96260.19;;;12.78;72.20
12757;BME280;31601;48.042;12.240;2023-05-02T02:03:42;96266.41;;;12.63;72.63
12757;BME280;31601;48.042;12.240;2023-05-02T02:06:09;96273.50;;;12.69;72.44
12757;BME280;31601;48.042;12.240;2023-05-02T02:08:36;96272.50;;;12.70;72.30
12757;BME280;31601;48.042;12.240;2023-05-02T02:11:08;96271.13;;;12.75;72.32
12757;BME280;31601;48.042;12.240;2023-05-02T02:13:38;96268.88;;;12.71;72.45
12757;BME280;31601;48.042;12.240;2023-05-02T02:16:10;96273.75;;;12.75;72.21
12757;BME280;31601;48.042;12.240;2023-05-02T02:18:38;96268.50;;;12.75;72.31
12757;BME280;31601;48.042;12.240;2023-05-02T02:21:08;96276.38;;;12.75;72.32
12757;BME280;31601;48.042;12.240;2023-05-02T02:23:35;96271.13;;;12.75;72.23
12757;BME280;31601;48.042;12.240;2023-05-02T02:26:04;96273.13;;;12.72;72.16
12757;BME280;31601;48.042;12.240;2023-05-02T02:28:33;96277.38;;;12.74;72.26
12757;BME280;31601;48.042;12.240;2023-05-02T02:31:00;96272.50;;;12.70;72.54
12757;BME280;31601;48.042;12.240;2023-05-02T02:33:29;96271.13;;;12.75;72.16
12757;BME280;31601;48.042;12.240;2023-05-02T02:36:00;96275.16;;;12.70;72.20
12757;BME280;31601;48.042;12.240;2023-05-02T02:38:37;96281.59;;;12.68;72.45
12757;BME280;31601;48.042;12.240;2023-05-02T02:41:12;96284.44;;;12.66;72.39
12757;BME280;31601;48.042;12.240;2023-05-02T02:43:44;96280.59;;;12.62;72.57
12757;BME280;31601;48.042;12.240;2023-05-02T02:46:17;96281.78;;;12.60;72.35
12757;BME280;31601;48.042;12.240;2023-05-02T02:48:54;96290.28;;;12.62;72.30
12757;BME280;31601;48.042;12.240;2023-05-02T02:51:27;96290.28;;;12.62;72.42
12757;BME280;31601;48.042;12.240;2023-05-02T02:53:59;96285.22;;;12.60;72.34
12757;BME280;31601;48.042;12.240;2023-05-02T02:56:35;96294.97;;;12.66;72.18
12757;BME280;31601;48.042;12.240;2023-05-02T02:59:04;96295.59;;;12.68;72.13
12757;BME280;31601;48.042;12.240;2023-05-02T03:01:33;96289.09;;;12.64;72.07
12757;BME280;31601;48.042;12.240;2023-05-02T03:04:04;96289.69;;;12.66;72.04
12757;BME280;31601;48.042;12.240;2023-05-02T03:06:33;96290.91;;;12.64;72.25
12757;BME280;31601;48.042;12.240;2023-05-02T03:09:01;96294.75;;;12.61;72.22
12757;BME280;31601;48.042;12.240;2023-05-02T03:11:28;96292.72;;;12.63;72.19
12757;BME280;31601;48.042;12.240;2023-05-02T03:13:54;96299.22;;;12.61;72.26
12757;BME280;31601;48.042;12.240;2023-05-02T03:16:31;96297.56;;;12.60;72.26
12757;BME280;31601;48.042;12.240;2023-05-02T03:18:59;96300.00;;;12.61;72.15
12757;BME280;31601;48.042;12.240;2023-05-02T03:21:25;96297.16;;;12.56;72.32
12757;BME280;31601;48.042;12.240;2023-05-02T03:23:51;96300.41;;;12.58;72.29
12757;BME280;31601;48.042;12.240;2023-05-02T03:26:19;96302.03;;;12.59;72.19
12757;BME280;31601;48.042;12.240;2023-05-02T03:28:46;96299.16;;;12.54;72.35
12757;BME280;31601;48.042;12.240;2023-05-02T03:31:13;96305.44;;;12.53;72.42
12757;BME280;31601;48.042;12.240;2023-05-02T03:33:39;96307.03;;;12.54;72.46
12757;BME280;31601;48.042;12.240;2023-05-02T03:36:06;96299.53;;;12.51;72.65
12757;BME280;31601;48.042;12.240;2023-05-02T03:38:32;96299.94;;;12.48;72.74
12757;BME280;31601;48.042;12.240;2023-05-02T03:40:59;96303.38;;;12.48;72.77
12757;BME280;31601;48.042;12.240;2023-05-02T03:43:27;96309.47;;;12.49;72.82
12757;BME280;31601;48.042;12.240;2023-05-02T03:45:53;96314.13;;;12.53;72.84
12757;BME280;31601;48.042;12.240;2023-05-02T03:48:20;96310.44;;;12.48;72.74
12757;BME280;31601;48.042;12.240;2023-05-02T03:50:47;96312.09;;;12.49;72.83
12757;BME280;31601;48.042;12.240;2023-05-02T03:53:14;96317.72;;;12.46;72.81
12757;BME280;31601;48.042;12.240;2023-05-02T03:55:42;96320.19;;;12.47;72.72
12757;BME280;31601;48.042;12.240;2023-05-02T03:58:09;96319.38;;;12.47;72.77
12757;BME280;31601;48.042;12.240;2023-05-02T04:00:37;96322.84;;;12.54;72.78
12757;BME280;31601;48.042;12.240;2023-05-02T04:03:03;96324.06;;;12.51;72.89
12757;BME280;31601;48.042;12.240;2023-05-02T04:05:31;96323.66;;;12.54;72.66
12757;BME280;31601;48.042;12.240;2023-05-02T04:07:57;96328.28;;;12.52;72.87
12757;BME280;31601;48.042;12.240;2023-05-02T04:10:24;96340.25;;;12.55;72.67
12757;BME280;31601;48.042;12.240;2023-05-02T04:12:50;96331.56;;;12.54;72.71
12757;BME280;31601;48.042;12.240;2023-05-02T04:15:17;96334.97;;;12.48;73.00
12757;BME280;31601;48.042;12.240;2023-05-02T04:17:44;96338.41;;;12.49;73.23
12757;BME280;31601;48.042;12.240;2023-05-02T04:20:11;96330.72;;;12.54;73.02
12757;BME280;31601;48.042;12.240;2023-05-02T04:22:38;96340.47;;;12.60;72.85
12757;BME280;31601;48.042;12.240;2023-05-02T04:25:05;96337.47;;;12.63;72.86
12757;BME280;31601;48.042;12.240;2023-05-02T04:27:31;96342.69;;;12.57;73.08
12757;BME280;31601;48.042;12.240;2023-05-02T04:29:58;96344.13;;;12.59;73.10
12757;BME280;31601;48.042;12.240;2023-05-02T04:32:25;96349.81;;;12.63;73.17
12757;BME280;31601;48.042;12.240;2023-05-02T04:34:53;96355.50;;;12.66;73.01
12757;BME280;31601;48.042;12.240;2023-05-02T04:37:20;96354.31;;;12.69;72.94
12757;BME280;31601;48.042;12.240;2023-05-02T04:39:46;96355.94;;;12.70;72.97
12757;BME280;31601;48.042;12.240;2023-05-02T04:42:13;96359.84;;;12.81;72.77
12757;BME280;31601;48.042;12.240;2023-05-02T04:44:39;96368.56;;;12.81;72.77
12757;BME280;31601;48.042;12.240;2023-05-02T04:47:06;96368.19;;;12.91;72.47
12757;BME280;31601;48.042;12.240;2023-05-02T04:49:32;96379.97;;;12.95;72.42
12757;BME280;31601;48.042;12.240;2023-05-02T04:52:00;96379.97;;;12.95;72.49
12757;BME280;31601;48.042;12.240;2023-05-02T04:54:26;96381.84;;;13.08;72.32
12757;BME280;31601;48.042;12.240;2023-05-02T04:56:53;96385.94;;;13.17;71.96
12757;BME280;31601;48.042;12.240;2023-05-02T04:59:19;96386.56;;;13.19;71.76
12757;BME280;31601;48.042;12.240;2023-05-02T05:01:46;96394.31;;;13.28;71.55
12757;BME280;31601;48.042;12.240;2023-05-02T05:04:12;96398.81;;;13.34;71.37
12757;BME280;31601;48.042;12.240;2023-05-02T05:06:39;96406.31;;;13.37;71.02
12757;BME280;31601;48.042;12.240;2023-05-02T05:09:06;96398.44;;;13.43;70.76
12757;BME280;31601;48.042;12.240;2023-05-02T05:11:33;96415.91;;;13.51;70.67
12757;BME280;31601;48.042;12.240;2023-05-02T05:13:59;96414.69;;;13.54;70.57
12757;BME280;31601;48.042;12.240;2023-05-02T05:16:28;96414.50;;;13.62;69.91
12757;BME280;31601;48.042;12.240;2023-05-02T05:18:54;96419.19;;;13.67;70.23
12757;BME280;31601;48.042;12.240;2023-05-02T05:21:21;96420.03;;;13.67;70.33
12757;BME280;31601;48.042;12.240;2023-05-02T05:23:47;96432.81;;;13.70;70.29
12757;BME280;31601;48.042;12.240;2023-05-02T05:26:15;96434.47;;;13.78;70.15
12757;BME280;31601;48.042;12.240;2023-05-02T05:28:43;96435.50;;;13.90;70.06
12757;BME280;31601;48.042;12.240;2023-05-02T05:31:10;96438.53;;;13.94;69.67
12757;BME280;31601;48.042;12.240;2023-05-02T05:33:37;96442.41;;;13.98;69.67
12757;BME280;31601;48.042;12.240;2023-05-02T05:36:05;96451.16;;;14.12;69.11
12757;BME280;31601;48.042;12.240;2023-05-02T05:38:31;96447.94;;;14.23;68.52
12757;BME280;31601;48.042;12.240;2023-05-02T05:40:58;96449.13;;;14.21;68.51
12757;BME280;31601;48.042;12.240;2023-05-02T05:43:27;96457.06;;;14.27;68.34
12757;BME280;31601;48.042;12.240;2023-05-02T05:45:54;96460.72;;;14.26;68.23
12757;BME280;31601;48.042;12.240;2023-05-02T05:48:21;96462.16;;;14.29;68.08
12757;BME280;31601;48.042;12.240;2023-05-02T05:50:47;96464.78;;;14.36;67.47
12757;BME280;31601;48.042;12.240;2023-05-02T05:53:14;96467.22;;;14.44;66.94
12757;BME280;31601;48.042;12.240;2023-05-02T05:55:41;96472.09;;;14.40;66.78
12757;BME280;31601;48.042;12.240;2023-05-02T05:58:07;96470.47;;;14.39;66.36
12757;BME280;31601;48.042;12.240;2023-05-02T06:00:36;96477.19;;;14.42;65.90
12757;BME280;31601;48.042;12.240;2023-05-02T06:03:03;96474.34;;;14.43;65.87
12757;BME280;31601;48.042;12.240;2023-05-02T06:05:30;96481.25;;;14.51;65.62
12757;BME280;31601;48.042;12.240;2023-05-02T06:07:56;96473.72;;;14.48;65.75
12757;BME280;31601;48.042;12.240;2023-05-02T06:10:23;96479.41;;;14.51;65.39
12757;BME280;31601;48.042;12.240;2023-05-02T06:12:50;96483.88;;;14.51;65.39
12757;BME280;31601;48.042;12.240;2023-05-02T06:15:16;96484.69;;;14.51;64.68
12757;BME280;31601;48.042;12.240;2023-05-02T06:17:44;96487.94;;;14.47;64.59
12757;BME280;31601;48.042;12.240;2023-05-02T06:20:11;96485.91;;;14.56;64.59
12757;BME280;31601;48.042;12.240;2023-05-02T06:22:37;96491.03;;;14.64;64.23
12757;BME280;31601;48.042;12.240;2023-05-02T06:25:05;96492.84;;;14.70;64.01
12757;BME280;31601;48.042;12.240;2023-05-02T06:27:33;96496.09;;;14.79;63.76
12757;BME280;31601;48.042;12.240;2023-05-02T06:29:59;96489.22;;;14.84;63.85
12757;BME280;31601;48.042;12.240;2023-05-02T06:32:29;96495.28;;;14.85;63.55
12757;BME280;31601;48.042;12.240;2023-05-02T06:34:56;96494.06;;;15.01;63.26
12757;BME280;31601;48.042;12.240;2023-05-02T06:37:23;96494.88;;;15.08;62.83
12757;BME280;31601;48.042;12.240;2023-05-02T06:39:49;96497.09;;;15.25;62.68
12757;BME280;31601;48.042;12.240;2023-05-02T06:42:16;96493.19;;;15.34;62.08
12757;BME280;31601;48.042;12.240;2023-05-02T06:44:42;96486.84;;;15.48;61.99
12757;BME280;31601;48.042;12.240;2023-05-02T06:47:08;96495.50;;;15.69;61.67
12757;BME280;31601;48.042;12.240;2023-05-02T06:49:35;96490.00;;;15.84;61.00
12757;BME280;31601;48.042;12.240;2023-05-02T06:52:03;96495.72;;;16.13;60.55
12757;BME280;31601;48.042;12.240;2023-05-02T06:54:29;96503.22;;;16.22;59.57
12757;BME280;31601;48.042;12.240;2023-05-02T06:56:55;96505.13;;;16.40;59.32
12757;BME280;31601;48.042;12.240;2023-05-02T06:59:22;96505.13;;;16.47;58.46
12757;BME280;31601;48.042;12.240;2023-05-02T07:01:48;96506.34;;;16.44;58.03
12757;BME280;31601;48.042;12.240;2023-05-02T07:04:15;96502.91;;;16.69;57.72
12757;BME280;31601;48.042;12.240;2023-05-02T07:06:41;96503.69;;;16.76;57.89
12757;BME280;31601;48.042;12.240;2023-05-02T07:09:09;96503.22;;;16.86;57.34
12757;BME280;31601;48.042;12.240;2023-05-02T07:11:35;96496.69;;;16.89;56.67
12757;BME280;31601;48.042;12.240;2023-05-02T07:14:02;96500.03;;;17.03;56.79
12757;BME280;31601;48.042;12.240;2023-05-02T07:16:28;96489.91;;;16.93;57.04
12757;BME280;31601;48.042;12.240;2023-05-02T07:18:55;96502.31;;;16.67;56.08
12757;BME280;31601;48.042;12.240;2023-05-02T07:21:21;96505.00;;;16.92;56.41
12757;BME280;31601;48.042;12.240;2023-05-02T07:23:48;96506.78;;;16.67;56.88
12757;BME280;31601;48.042;12.240;2023-05-02T07:26:16;96503.06;;;16.74;56.97
12757;BME280;31601;48.042;12.240;2023-05-02T07:28:48;96506.31;;;16.76;57.42
12757;BME280;31601;48.042;12.240;2023-05-02T07:31:17;96504.13;;;16.98;57.07
12757;BME280;31601;48.042;12.240;2023-05-02T07:33:44;96508.50;;;16.86;56.75
12757;BME280;31601;48.042;12.240;2023-05-02T07:36:10;96506.53;;;16.75;56.47
12757;BME280;31601;48.042;12.240;2023-05-02T07:38:37;96508.84;;;16.96;56.96
12757;BME280;31601;48.042;12.240;2023-05-02T07:41:03;96509.09;;;16.88;56.93
12757;BME280;31601;48.042;12.240;2023-05-02T07:43:31;96503.53;;;16.96;56.92
12757;BME280;31601;48.042;12.240;2023-05-02T07:46:02;96509.53;;;17.10;57.17
12757;BME280;31601;48.042;12.240;2023-05-02T07:48:29;96509.25;;;17.18;56.24
12757;BME280;31601;48.042;12.240;2023-05-02T07:53:23;96518.34;;;17.48;55.66
12757;BME280;31601;48.042;12.240;2023-05-02T07:55:49;96515.09;;;17.46;55.53
12757;BME280;31601;48.042;12.240;2023-05-02T07:58:16;96518.19;;;17.43;55.78
12757;BME280;31601;48.042;12.240;2023-05-02T08:00:43;96524.38;;;17.36;56.14
12757;BME280;31601;48.042;12.240;2023-05-02T08:03:10;96524.53;;;16.98;56.16
12757;BME280;31601;48.042;12.240;2023-05-02T08:05:37;96526.88;;;16.49;55.91
12757;BME280;31601;48.042;12.240;2023-05-02T08:08:03;96523.41;;;16.87;56.19
12757;BME280;31601;48.042;12.240;2023-05-02T08:10:30;96526.59;;;16.64;55.80
12757;BME280;31601;48.042;12.240;2023-05-02T08:12:57;96532.81;;;16.76;56.83
12757;BME280;31601;48.042;12.240;2023-05-02T08:15:23;96527.47;;;16.83;56.89
12757;BME280;31601;48.042;12.240;2023-05-02T08:17:51;96529.00;;;16.97;56.48
12757;BME280;31601;48.042;12.240;2023-05-02T08:20:17;96533.78;;;16.89;56.45
12757;BME280;31601;48.042;12.240;2023-05-02T08:22:44;96534.06;;;16.74;55.64
12757;BME280;31601;48.042;12.240;2023-05-02T08:25:10;96530.19;;;17.02;56.22
12757;BME280;31601;48.042;12.240;2023-05-02T08:27:37;96534.59;;;17.33;56.46
12757;BME280;31601;48.042;12.240;2023-05-02T08:30:04;96545.00;;;17.71;55.49
12757;BME280;31601;48.042;12.240;2023-05-02T08:32:31;96538.69;;;17.91;55.02
12757;BME280;31601;48.042;12.240;2023-05-02T08:34:59;96541.00;;;18.18;54.27
12757;BME280;31601;48.042;12.240;2023-05-02T08:37:25;96536.63;;;17.93;53.65
12757;BME280;31601;48.042;12.240;2023-05-02T08:39:51;96538.75;;;17.84;54.29
12757;BME280;31601;48.042;12.240;2023-05-02T08:42:18;96542.00;;;17.68;54.38
12757;BME280;31601;48.042;12.240;2023-05-02T08:44:45;96553.13;;;18.14;54.06
12757;BME280;31601;48.042;12.240;2023-05-02T08:47:12;96548.19;;;18.17;53.53
12757;BME280;31601;48.042;12.240;2023-05-02T08:49:41;96544.31;;;18.01;53.01
12757;BME280;31601;48.042;12.240;2023-05-02T08:52:09;96548.97;;;17.81;53.44
12757;BME280;31601;48.042;12.240;2023-05-02T08:54:37;96556.84;;;17.94;53.41
12757;BME280;31601;48.042;12.240;2023-05-02T08:57:04;96559.34;;;18.07;53.65
12757;BME280;31601;48.042;12.240;2023-05-02T08:59:31;96563.69;;;18.02;53.41
12757;BME280;31601;48.042;12.240;2023-05-02T09:02:01;96564.84;;;18.24;53.52
12757;BME280;31601;48.042;12.240;2023-05-02T09:04:31;96562.53;;;18.28;53.31
12757;BME280;31601;48.042;12.240;2023-05-02T09:06:57;96559.56;;;18.36;52.86
12757;BME280;31601;48.042;12.240;2023-05-02T09:09:25;96568.88;;;18.57;53.06
12757;BME280;31601;48.042;12.240;2023-05-02T09:11:53;96574.72;;;18.78;52.17
12757;BME280;31601;48.042;12.240;2023-05-02T09:14:19;96567.69;;;18.84;52.43
12757;BME280;31601;48.042;12.240;2023-05-02T09:16:46;96566.69;;;18.85;52.35
12757;BME280;31601;48.042;12.240;2023-05-02T09:19:23;96561.50;;;18.90;51.86
12757;BME280;31601;48.042;12.240;2023-05-02T09:21:50;96573.69;;;18.79;51.86
12757;BME280;31601;48.042;12.240;2023-05-02T09:24:17;96563.81;;;18.98;51.13
12757;BME280;31601;48.042;12.240;2023-05-02T09:26:56;96568.59;;;19.08;51.63
12757;BME280;31601;48.042;12.240;2023-05-02T09:29:23;96572.16;;;19.25;51.36
12757;BME280;31601;48.042;12.240;2023-05-02T09:31:50;96563.59;;;19.35;50.61
12757;BME280;31601;48.042;12.240;2023-05-02T09:34:16;96572.84;;;19.44;50.94
12757;BME280;31601;48.042;12.240;2023-05-02T09:36:44;96573.91;;;19.55;50.25
12757;BME280;31601;48.042;12.240;2023-05-02T09:39:12;96575.16;;;19.76;49.75
12757;BME280;31601;48.042;12.240;2023-05-02T09:41:39;96584.81;;;19.77;49.19
12757;BME280;31601;48.042;12.240;2023-05-02T09:44:10;96586.41;;;19.78;49.09
12757;BME280;31601;48.042;12.240;2023-05-02T09:46:41;96582.81;;;19.84;49.79
12757;BME280;31601;48.042;12.240;2023-05-02T09:49:08;96583.56;;;20.09;49.70
12757;BME280;31601;48.042;12.240;2023-05-02T09:51:35;96567.94;;;20.12;48.54
12757;BME280;31601;48.042;12.240;2023-05-02T09:54:02;96576.56;;;20.31;48.43
12757;BME280;31601;48.042;12.240;2023-05-02T09:56:28;96574.09;;;20.13;48.59
12757;BME280;31601;48.042;12.240;2023-05-02T09:59:14;96578.97;;;20.04;48.65
12757;BME280;31601;48.042;12.240;2023-05-02T10:01:41;96582.31;;;20.11;49.28
12757;BME280;31601;48.042;12.240;2023-05-02T10:04:11;96575.94;;;20.41;48.13
12757;BME280;31601;48.042;12.240;2023-05-02T10:06:41;96583.78;;;20.19;48.81
12757;BME280;31601;48.042;12.240;2023-05-02T10:09:08;96587.28;;;20.08;49.35
12757;BME280;31601;48.042;12.240;2023-05-02T10:11:36;96576.97;;;20.40;48.96
12757;BME280;31601;48.042;12.240;2023-05-02T10:14:04;96580.81;;;20.44;48.28
12757;BME280;31601;48.042;12.240;2023-05-02T10:16:35;96573.88;;;20.60;47.01
12757;BME280;31601;48.042;12.240;2023-05-02T10:19:08;96575.03;;;20.64;47.71
12757;BME280;31601;48.042;12.240;2023-05-02T10:21:35;96578.09;;;21.02;46.66
12757;BME280;31601;48.042;12.240;2023-05-02T10:24:02;96572.50;;;21.03;47.00
12757;BME280;31601;48.042;12.240;2023-05-02T10:26:30;96574.09;;;20.70;46.26
12757;BME280;31601;48.042;12.240;2023-05-02T10:28:59;96572.00;;;20.72;47.25
12757;BME280;31601;48.042;12.240;2023-05-02T10:31:27;96573.81;;;20.84;46.31
12757;BME280;31601;48.042;12.240;2023-05-02T10:33:59;96573.88;;;20.89;46.31
12757;BME280;31601;48.042;12.240;2023-05-02T10:36:28;96574.59;;;20.84;46.49
12757;BME280;31601;48.042;12.240;2023-05-02T10:38:57;96574.78;;;20.95;46.20
12757;BME280;31601;48.042;12.240;2023-05-02T10:41:26;96572.13;;;20.95;45.18
12757;BME280;31601;48.042;12.240;2023-05-02T10:43:54;96573.66;;;20.90;45.26
12757;BME280;31601;48.042;12.240;2023-05-02T10:46:31;96574.59;;;20.84;46.12
12757;BME280;31601;48.042;12.240;2023-05-02T10:49:03;96567.72;;;21.22;46.14
12757;BME280;31601;48.042;12.240;2023-05-02T10:51:31;96571.78;;;21.25;45.34
12757;BME280;31601;48.042;12.240;2023-05-02T10:54:20;96566.03;;;21.50;44.33
12757;BME280;31601;48.042;12.240;2023-05-02T10:57:04;96564.81;;;21.41;44.08
12757;BME280;31601;48.042;12.240;2023-05-02T10:59:33;96569.03;;;21.54;44.58
12757;BME280;31601;48.042;12.240;2023-05-02T11:02:00;96568.63;;;21.45;43.93
12757;BME280;31601;48.042;12.240;2023-05-02T11:05:02;96567.00;;;20.76;43.13
12757;BME280;31601;48.042;12.240;2023-05-02T11:07:29;96566.38;;;21.03;42.51
12757;BME280;31601;48.042;12.240;2023-05-02T11:10:24;96567.66;;;20.83;43.58
12757;BME280;31601;48.042;12.240;2023-05-02T11:12:52;96566.31;;;20.98;44.41
12757;BME280;31601;48.042;12.240;2023-05-02T11:18:15;96574.06;;;20.82;44.15
12757;BME280;31601;48.042;12.240;2023-05-02T11:20:43;96562.91;;;20.85;44.48
12757;BME280;31601;48.042;12.240;2023-05-02T11:23:23;96568.06;;;20.75;44.54
12757;BME280;31601;48.042;12.240;2023-05-02T11:25:54;96568.72;;;20.82;44.96
12757;BME280;31601;48.042;12.240;2023-05-02T11:28:42;96564.97;;;20.37;44.03
12757;BME280;31601;48.042;12.240;2023-05-02T11:34:11;96564.91;;;20.78;44.80
12757;BME280;31601;48.042;12.240;2023-05-02T11:36:39;96568.34;;;20.33;44.88
12757;BME280;31601;48.042;12.240;2023-05-02T11:39:17;96568.03;;;20.46;44.79
12757;BME280;31601;48.042;12.240;2023-05-02T11:41:44;96567.63;;;20.66;46.61
12757;BME280;31601;48.042;12.240;2023-05-02T11:44:12;96564.25;;;20.71;46.18
12757;BME280;31601;48.042;12.240;2023-05-02T11:46:39;96570.06;;;20.68;46.42
12757;BME280;31601;48.042;12.240;2023-05-02T11:49:06;96570.66;;;20.58;47.15
12757;BME280;31601;48.042;12.240;2023-05-02T11:51:33;96572.84;;;20.61;46.31
12757;BME280;31601;48.042;12.240;2023-05-02T11:54:01;96576.09;;;20.34;43.52
12757;BME280;31601;48.042;12.240;2023-05-02T11:56:28;96580.50;;;20.29;45.29
12757;BME280;31601;48.042;12.240;2023-05-02T11:58:58;96585.75;;;20.24;45.79
12757;BME280;31601;48.042;12.240;2023-05-02T12:01:25;96577.41;;;20.20;45.73
12757;BME280;31601;48.042;12.240;2023-05-02T12:04:01;96578.63;;;20.00;47.02
12757;BME280;31601;48.042;12.240;2023-05-02T12:06:27;96586.16;;;19.80;48.01
12757;BME280;31601;48.042;12.240;2023-05-02T12:09:05;96585.72;;;19.59;48.36
12757;BME280;31601;48.042;12.240;2023-05-02T12:11:32;96592.53;;;19.43;47.42
12757;BME280;31601;48.042;12.240;2023-05-02T12:13:58;96586.38;;;19.19;49.96
12757;BME280;31601;48.042;12.240;2023-05-02T12:16:25;96595.59;;;18.93;51.80
12757;BME280;31601;48.042;12.240;2023-05-02T12:18:52;96592.13;;;18.62;53.38
12757;BME280;31601;48.042;12.240;2023-05-02T12:21:20;96593.97;;;18.61;52.19
12757;BME280;31601;48.042;12.240;2023-05-02T12:23:47;96591.84;;;18.52;54.04
12757;BME280;31601;48.042;12.240;2023-05-02T12:26:19;96591.94;;;18.45;55.32
12757;BME280;31601;48.042;12.240;2023-05-02T12:28:49;96588.84;;;18.78;53.32
12757;BME280;31601;48.042;12.240;2023-05-02T12:31:16;96592.00;;;18.87;52.00
12757;BME280;31601;48.042;12.240;2023-05-02T12:33:43;96591.44;;;18.97;52.18
12757;BME280;31601;48.042;12.240;2023-05-02T12:36:10;96598.66;;;19.20;50.54
12757;BME280;31601;48.042;12.240;2023-05-02T12:38:37;96592.75;;;19.30;50.15
12757;BME280;31601;48.042;12.240;2023-05-02T12:41:04;96597.75;;;19.50;50.14
12757;BME280;31601;48.042;12.240;2023-05-02T12:43:45;96587.22;;;19.67;49.87
12757;BME280;31601;48.042;12.240;2023-05-02T12:46:12;96600.75;;;19.65;49.50
12757;BME280;31601;48.042;12.240;2023-05-02T12:48:38;96605.72;;;19.62;49.23
12757;BME280;31601;48.042;12.240;2023-05-02T12:51:05;96607.22;;;19.46;48.89
12757;BME280;31601;48.042;12.240;2023-05-02T12:53:38;96627.53;;;19.05;48.04
12757;BME280;31601;48.042;12.240;2023-05-02T12:56:06;96635.22;;;18.15;50.62
12757;BME280;31601;48.042;12.240;2023-05-02T12:58:40;96629.84;;;17.34;51.89
12757;BME280;31601;48.042;12.240;2023-05-02T13:01:08;96630.84;;;17.08;53.14
12757;BME280;31601;48.042;12.240;2023-05-02T13:03:35;96636.53;;;16.41;54.85
12757;BME280;31601;48.042;12.240;2023-05-02T13:06:02;96636.38;;;16.29;55.50